Time;durP1;ratioP1;P1;durP2;ratioP2;P2;SDS_P1;SDS_P2;PMS_P1;PMS_P2;Temp;Humidity;BMP_temperature;BMP_pressure;BME280_temperature;BME280_humidity;BME280_pressure;Samples;Min_cycle;Max_cycle;Signal;HPM_P1;HPM_P2
2021/07/11 00:00:10;;;;;;;13.27;8.18;;;20.30;72.80;;;;;;5033169;28;20065;-70
2021/07/11 00:02:36;;;;;;;12.90;8.65;;;20.40;73.10;;;;;;5047357;28;20033;-70
2021/07/11 00:05:05;;;;;;;12.27;8.18;;;20.30;73.30;;;;;;5052326;28;20040;-71
2021/07/11 00:07:30;;;;;;;10.65;7.70;;;20.30;73.20;;;;;;5053362;28;20025;-70
2021/07/11 00:09:57;;;;;;;10.38;7.65;;;20.40;73.20;;;;;;5035687;28;20472;-71
2021/07/11 00:12:24;;;;;;;12.18;8.10;;;20.30;73.20;;;;;;5040069;28;20029;-70
2021/07/11 00:14:50;;;;;;;13.35;8.30;;;20.30;74.00;;;;;;5032351;28;20034;-70
2021/07/11 00:17:15;;;;;;;11.65;8.43;;;20.30;73.40;;;;;;5033414;28;20473;-71
2021/07/11 00:19:41;;;;;;;13.07;7.70;;;20.30;73.60;;;;;;5033355;28;20105;-71
2021/07/11 00:22:07;;;;;;;12.88;8.68;;;20.30;73.90;;;;;;5042130;28;20416;-71
2021/07/11 00:24:34;;;;;;;13.30;9.27;;;20.30;74.00;;;;;;5052030;28;20021;-71
2021/07/11 00:27:00;;;;;;;12.93;9.20;;;20.30;74.20;;;;;;5053261;28;20090;-71
2021/07/11 00:29:25;;;;;;;14.60;9.30;;;20.30;74.40;;;;;;5053014;28;20032;-70
2021/07/11 00:31:51;;;;;;;16.58;8.73;;;20.30;74.50;;;;;;5043607;28;20476;-71
2021/07/11 00:34:16;;;;;;;13.85;9.65;;;20.30;74.80;;;;;;5033007;28;20038;-71
2021/07/11 00:36:42;;;;;;;12.18;7.75;;;20.20;75.10;;;;;;5033260;28;20041;-71
2021/07/11 00:39:07;;;;;;;12.82;8.52;;;20.20;75.10;;;;;;5033167;28;20029;-70
2021/07/11 00:41:38;;;;;;;11.38;7.93;;;20.20;75.20;;;;;;5036860;28;20045;-70
2021/07/11 00:44:05;;;;;;;12.82;8.80;;;20.10;75.40;;;;;;5052965;28;20500;-70
2021/07/11 00:46:30;;;;;;;11.65;8.82;;;20.10;75.50;;;;;;5053023;28;20108;-71
2021/07/11 00:48:56;;;;;;;13.48;8.57;;;20.10;75.60;;;;;;5051890;28;20497;-70
2021/07/11 00:51:22;;;;;;;12.95;8.48;;;20.00;75.60;;;;;;5049204;28;20026;-70
2021/07/11 00:53:50;;;;;;;13.98;10.13;;;20.00;75.80;;;;;;5032201;28;20037;-70
2021/07/11 00:56:16;;;;;;;13.05;9.68;;;19.90;76.00;;;;;;5033080;28;20040;-70
2021/07/11 00:58:42;;;;;;;14.93;9.80;;;20.00;76.20;;;;;;5032974;28;20429;-71
2021/07/11 01:01:08;;;;;;;13.60;10.10;;;20.00;76.30;;;;;;5032218;28;20052;-70
2021/07/11 01:03:37;;;;;;;15.23;9.80;;;19.90;76.30;;;;;;5035085;28;20021;-71
2021/07/11 01:06:03;;;;;;;13.93;9.48;;;19.90;76.50;;;;;;5051515;28;20500;-70
2021/07/11 01:08:47;;;;;;;12.50;9.88;;;19.90;76.60;;;;;;5052586;28;20457;-71
2021/07/11 01:11:17;;;;;;;14.75;9.15;;;19.80;76.90;;;;;;5050153;28;20071;-70
2021/07/11 01:13:44;;;;;;;13.25;9.82;;;19.80;77.30;;;;;;5038653;28;20125;-70
2021/07/11 01:16:13;;;;;;;15.55;10.60;;;19.70;77.40;;;;;;5035094;28;20500;-70
2021/07/11 01:18:42;;;;;;;15.93;11.57;;;19.70;77.90;;;;;;5036138;28;20104;-70
2021/07/11 01:21:12;;;;;;;14.80;10.38;;;19.60;78.20;;;;;;5036357;28;20030;-69
2021/07/11 01:23:58;;;;;;;16.08;10.23;;;19.60;78.50;;;;;;5054588;28;20021;-70
2021/07/11 01:26:26;;;;;;;14.73;10.10;;;19.50;78.60;;;;;;5055649;28;20090;-71
2021/07/11 01:28:53;;;;;;;13.73;9.73;;;19.50;78.70;;;;;;5056124;28;20512;-70
2021/07/11 01:31:22;;;;;;;14.68;10.35;;;19.50;78.90;;;;;;5052078;28;20035;-70
2021/07/11 01:33:49;;;;;;;16.45;11.77;;;19.40;79.20;;;;;;5035679;28;20496;-70
2021/07/11 01:36:16;;;;;;;16.17;11.05;;;19.40;80.10;;;;;;5035832;28;20091;-70
2021/07/11 01:38:43;;;;;;;14.90;11.63;;;19.40;79.70;;;;;;5035703;28;20480;-70
2021/07/11 01:41:11;;;;;;;16.45;12.48;;;19.30;79.80;;;;;;5035726;28;20389;-71
2021/07/11 01:43:38;;;;;;;14.38;11.45;;;19.30;80.10;;;;;;5055850;28;20033;-70
2021/07/11 01:46:06;;;;;;;16.63;11.07;;;19.30;80.30;;;;;;5055505;28;20025;-70
2021/07/11 01:48:32;;;;;;;14.90;10.52;;;19.30;80.70;;;;;;5055438;28;20481;-70
2021/07/11 01:50:59;;;;;;;14.73;10.13;;;19.30;80.70;;;;;;5054356;28;20117;-70
2021/07/11 01:53:34;;;;;;;16.40;11.07;;;19.20;80.80;;;;;;5034742;28;20396;-71
2021/07/11 01:56:03;;;;;;;14.13;10.60;;;19.20;81.00;;;;;;5035397;28;20030;-70
2021/07/11 01:58:28;;;;;;;16.67;11.07;;;19.20;81.10;;;;;;5036349;28;20091;-71
2021/07/11 02:00:55;;;;;;;13.77;10.85;;;19.20;81.30;;;;;;5034054;28;20424;-71
2021/07/11 02:03:25;;;;;;;15.45;11.13;;;19.20;81.50;;;;;;5034713;28;20088;-71
2021/07/11 02:05:53;;;;;;;13.70;10.18;;;19.20;81.50;;;;;;5035383;28;20099;-71
2021/07/11 02:08:19;;;;;;;13.32;9.93;;;19.20;82.20;;;;;;5040339;28;20087;-70
2021/07/11 02:10:47;;;;;;;16.80;9.80;;;19.20;81.80;;;;;;5055327;28;20146;-71
2021/07/11 02:13:34;;;;;;;16.30;10.27;;;19.20;81.80;;;;;;5055161;28;20036;-70
2021/07/11 02:16:17;;;;;;;14.82;9.90;;;19.20;81.80;;;;;;5055424;28;20029;-70
2021/07/11 02:18:43;;;;;;;13.80;9.43;;;19.20;81.80;;;;;;5045814;28;20025;-70
2021/07/11 02:21:09;;;;;;;14.38;10.38;;;19.20;81.80;;;;;;5034941;28;20492;-71
2021/07/11 02:23:36;;;;;;;14.38;10.43;;;19.20;81.90;;;;;;5017321;28;20033;-70
2021/07/11 02:26:05;;;;;;;14.20;10.10;;;19.20;82.00;;;;;;5033649;28;20037;-70
2021/07/11 02:28:34;;;;;;;14.32;10.52;;;19.20;82.10;;;;;;5041168;28;20017;-71
2021/07/11 02:31:02;;;;;;;11.77;8.90;;;19.20;82.10;;;;;;5054522;28;20036;-71
2021/07/11 02:33:46;;;;;;;14.70;10.73;;;19.20;82.10;;;;;;5054785;28;20037;-71
2021/07/11 02:36:23;;;;;;;16.80;12.05;;;19.20;82.20;;;;;;5054808;28;20078;-71
2021/07/11 02:38:57;;;;;;;13.95;9.65;;;19.20;82.80;;;;;;5045636;28;20531;-71
2021/07/11 02:41:27;;;;;;;15.88;11.30;;;19.20;82.20;;;;;;5034742;28;20029;-70
2021/07/11 02:43:55;;;;;;;15.50;11.02;;;19.20;82.20;;;;;;5033461;28;20112;-71
2021/07/11 02:46:24;;;;;;;15.05;10.65;;;19.20;82.30;;;;;;5034634;28;20033;-71
2021/07/11 02:48:52;;;;;;;14.82;10.57;;;19.10;82.30;;;;;;5042293;28;20036;-71
2021/07/11 02:51:21;;;;;;;14.65;10.32;;;19.10;83.00;;;;;;5054667;28;20060;-71
2021/07/11 02:53:48;;;;;;;15.95;11.18;;;19.10;82.50;;;;;;5054232;28;20044;-71
2021/07/11 02:56:17;;;;;;;16.80;11.38;;;19.10;82.60;;;;;;5054415;28;20432;-70
2021/07/11 02:58:45;;;;;;;14.65;11.75;;;19.10;82.80;;;;;;5045458;28;20424;-70
2021/07/11 03:01:11;;;;;;;14.68;11.10;;;19.00;83.00;;;;;;5033125;28;20036;-70
2021/07/11 03:03:38;;;;;;;14.60;11.25;;;19.00;83.20;;;;;;5034211;28;20053;-71
2021/07/11 03:06:04;;;;;;;16.02;11.98;;;19.00;83.30;;;;;;5034408;28;20025;-70
2021/07/11 03:08:30;;;;;;;17.50;12.70;;;18.90;83.50;;;;;;5039155;28;20021;-70
2021/07/11 03:10:57;;;;;;;16.65;12.73;;;18.90;83.70;;;;;;5054348;28;20037;-70
2021/07/11 03:13:25;;;;;;;16.50;12.48;;;18.90;83.90;;;;;;5036202;28;20025;-71
2021/07/11 03:15:51;;;;;;;17.92;12.70;;;18.90;84.60;;;;;;5053822;28;20039;-71
2021/07/11 03:18:17;;;;;;;18.65;13.02;;;18.90;84.10;;;;;;5049539;28;20138;-71
2021/07/11 03:20:47;;;;;;;18.45;12.90;;;18.90;84.20;;;;;;5016444;28;20516;-71
2021/07/11 03:23:13;;;;;;;15.85;11.98;;;18.90;84.40;;;;;;5034176;28;20026;-71
2021/07/11 03:25:39;;;;;;;17.63;12.88;;;18.90;84.60;;;;;;5034028;28;20021;-71
2021/07/11 03:28:06;;;;;;;18.23;12.02;;;18.90;84.70;;;;;;5041378;28;20140;-71
2021/07/11 03:30:37;;;;;;;16.23;12.50;;;18.90;84.70;;;;;;5048642;28;20112;-71
2021/07/11 03:33:05;;;;;;;16.42;12.50;;;18.90;84.80;;;;;;5053354;28;20031;-71
2021/07/11 03:35:42;;;;;;;15.18;11.77;;;18.90;84.80;;;;;;5052438;28;20040;-71
2021/07/11 03:38:12;;;;;;;14.98;11.98;;;19.00;85.00;;;;;;5037904;28;20104;-70
2021/07/11 03:40:41;;;;;;;17.40;13.13;;;19.00;85.00;;;;;;5033843;28;20017;-70
2021/07/11 03:43:09;;;;;;;17.58;13.10;;;19.00;85.10;;;;;;5032173;28;20065;-70
2021/07/11 03:45:37;;;;;;;17.17;13.18;;;19.00;85.20;;;;;;5033679;28;20533;-70
2021/07/11 03:48:24;;;;;;;17.20;13.27;;;18.90;85.40;;;;;;5047135;28;20028;-71
2021/07/11 03:50:54;;;;;;;19.13;12.75;;;19.00;85.50;;;;;;5053864;28;20419;-70
2021/07/11 03:53:25;;;;;;;15.57;12.93;;;18.90;85.50;;;;;;5053241;28;20017;-70
2021/07/11 03:55:53;;;;;;;19.42;12.52;;;18.90;85.70;;;;;;5053602;28;20029;-70
2021/07/11 03:58:21;;;;;;;17.15;12.13;;;18.90;85.70;;;;;;5037858;28;20029;-70
2021/07/11 04:00:48;;;;;;;16.60;13.20;;;18.90;85.80;;;;;;5034574;28;20074;-70
2021/07/11 04:03:16;;;;;;;18.10;12.98;;;18.90;86.00;;;;;;5050457;28;20087;-70
2021/07/11 04:05:42;;;;;;;20.33;14.80;;;18.90;86.20;;;;;;5053013;28;20527;-70
2021/07/11 04:08:14;;;;;;;17.40;12.07;;;18.90;86.30;;;;;;5038596;28;20152;-70
2021/07/11 04:10:40;;;;;;;20.63;14.32;;;18.90;86.60;;;;;;5033553;28;20048;-70
2021/07/11 04:13:07;;;;;;;19.20;12.85;;;18.90;86.70;;;;;;5033499;28;20030;-70
2021/07/11 04:15:33;;;;;;;19.20;13.20;;;18.90;86.80;;;;;;5032308;28;20040;-70
2021/07/11 04:18:05;;;;;;;17.40;13.50;;;18.90;87.00;;;;;;5044983;28;20036;-70
2021/07/11 04:20:31;;;;;;;19.30;13.50;;;18.80;87.00;;;;;;5052982;28;20029;-70
2021/07/11 04:22:59;;;;;;;18.63;14.90;;;18.90;87.10;;;;;;5051758;28;20116;-70
2021/07/11 04:25:29;;;;;;;18.50;13.80;;;18.80;87.20;;;;;;5053044;28;20025;-70
2021/07/11 04:27:56;;;;;;;20.33;14.75;;;18.80;87.40;;;;;;5041505;28;20038;-70
2021/07/11 04:30:22;;;;;;;20.95;16.10;;;18.80;87.70;;;;;;5033571;28;20109;-71
2021/07/11 04:32:48;;;;;;;23.10;15.80;;;18.80;87.80;;;;;;5032049;28;20029;-71
2021/07/11 04:35:14;;;;;;;24.17;15.50;;;18.80;87.80;;;;;;5033718;28;20811;-75
2021/07/11 04:37:40;;;;;;;21.77;16.60;;;18.80;88.00;;;;;;5031914;28;20125;-75
2021/07/11 04:40:07;;;;;;;21.40;16.60;;;18.80;88.10;;;;;;5032862;28;20104;-75
2021/07/11 04:42:32;;;;;;;20.02;15.75;;;18.80;88.10;;;;;;5033020;28;20056;-75
2021/07/11 04:45:01;;;;;;;20.55;15.52;;;18.80;88.20;;;;;;5032994;28;20022;-75
2021/07/11 04:47:27;;;;;;;19.52;15.60;;;18.80;88.30;;;;;;5039458;28;20025;-75
2021/07/11 04:49:53;;;;;;;19.58;15.27;;;18.80;88.30;;;;;;5055281;28;20044;-75
2021/07/11 04:52:18;;;;;;;21.20;15.85;;;18.70;88.30;;;;;;5056970;28;20040;-75
2021/07/11 04:54:44;;;;;;;23.52;16.92;;;18.80;88.60;;;;;;5056970;28;20027;-75
2021/07/11 04:57:10;;;;;;;25.42;16.30;;;18.70;88.60;;;;;;5039076;28;20031;-75
2021/07/11 04:59:36;;;;;;;23.70;17.15;;;18.70;88.70;;;;;;5056677;28;20032;-76
2021/07/11 05:02:02;;;;;;;23.85;17.75;;;18.80;88.80;;;;;;5038815;28;20504;-76
2021/07/11 05:04:29;;;;;;;22.92;16.90;;;18.80;89.10;;;;;;5056703;28;20372;-75
2021/07/11 05:06:54;;;;;;;20.83;16.65;;;18.70;89.10;;;;;;5052482;28;20032;-75
2021/07/11 05:09:20;;;;;;;23.63;18.15;;;18.80;89.20;;;;;;5035413;28;20033;-76
2021/07/11 05:11:46;;;;;;;22.55;17.05;;;18.70;89.30;;;;;;5019101;28;20021;-75
2021/07/11 05:14:11;;;;;;;22.67;17.33;;;18.80;89.60;;;;;;5035396;28;20471;-75
2021/07/11 05:16:37;;;;;;;21.83;16.13;;;18.80;89.70;;;;;;5036318;28;20362;-76
2021/07/11 05:19:03;;;;;;;21.77;17.42;;;18.80;89.70;;;;;;5056464;28;20071;-75
2021/07/11 05:21:29;;;;;;;24.35;18.80;;;18.80;89.70;;;;;;5055192;28;20040;-75
2021/07/11 05:23:56;;;;;;;21.67;16.20;;;18.80;89.60;;;;;;5056305;28;20025;-75
2021/07/11 05:26:22;;;;;;;24.42;17.60;;;18.80;89.60;;;;;;5055381;28;20469;-71
2021/07/11 05:28:48;;;;;;;20.65;16.45;;;18.90;89.70;;;;;;5034648;28;20112;-71
2021/07/11 05:31:14;;;;;;;19.30;16.10;;;18.80;89.60;;;;;;5034722;28;20188;-71
2021/07/11 05:33:39;;;;;;;22.52;17.23;;;18.90;89.70;;;;;;5034745;28;20072;-71
2021/07/11 05:36:07;;;;;;;22.10;17.25;;;18.90;89.70;;;;;;5044469;28;20112;-71
2021/07/11 05:38:33;;;;;;;24.50;17.50;;;18.90;89.80;;;;;;5056023;28;20029;-71
2021/07/11 05:40:59;;;;;;;22.67;18.10;;;18.90;90.00;;;;;;5054802;28;20041;-71
2021/07/11 05:43:25;;;;;;;25.65;19.33;;;18.90;90.00;;;;;;5055651;28;20323;-71
2021/07/11 05:45:50;;;;;;;23.08;17.77;;;18.80;90.10;;;;;;5049031;28;20351;-75
2021/07/11 05:48:16;;;;;;;25.13;19.50;;;18.80;90.10;;;;;;5037530;28;20098;-76
2021/07/11 05:50:43;;;;;;;25.73;18.65;;;18.90;90.20;;;;;;5034699;28;20442;-75
2021/07/11 05:53:10;;;;;;;22.65;18.20;;;18.90;90.20;;;;;;5034041;28;20021;-75
2021/07/11 05:55:37;;;;;;;30.08;19.40;;;18.80;90.30;;;;;;5021145;28;20071;-75
2021/07/11 05:58:04;;;;;;;26.02;20.48;;;18.80;90.30;;;;;;5055369;28;20035;-75
2021/07/11 06:00:29;;;;;;;24.85;19.48;;;18.80;90.40;;;;;;5054411;28;20033;-75
2021/07/11 06:02:55;;;;;;;23.60;18.67;;;18.80;90.40;;;;;;5054929;28;20029;-76
2021/07/11 06:05:21;;;;;;;27.65;21.35;;;18.80;90.50;;;;;;5055431;28;20493;-76
2021/07/11 06:07:46;;;;;;;26.95;21.50;;;18.90;90.60;;;;;;5054177;28;20481;-75
2021/07/11 06:10:12;;;;;;;27.33;20.67;;;18.90;90.60;;;;;;5055135;28;20072;-75
2021/07/11 06:12:38;;;;;;;26.98;21.17;;;18.90;90.60;;;;;;5055180;28;20036;-75
2021/07/11 06:15:05;;;;;;;27.00;20.55;;;18.90;90.70;;;;;;5037731;28;20384;-75
2021/07/11 06:17:32;;;;;;;31.65;22.25;;;18.90;90.70;;;;;;5055222;28;20040;-76
2021/07/11 06:19:59;;;;;;;26.80;22.02;;;18.90;90.70;;;;;;5055090;28;20036;-76
2021/07/11 06:22:25;;;;;;;28.67;22.92;;;18.90;90.70;;;;;;5054955;28;20025;-75
2021/07/11 06:24:50;;;;;;;29.77;22.55;;;18.90;90.80;;;;;;5052962;28;20047;-75
2021/07/11 06:27:16;;;;;;;28.98;22.98;;;18.90;90.80;;;;;;5055007;28;20033;-71
2021/07/11 06:29:42;;;;;;;30.35;23.17;;;18.90;90.90;;;;;;5054725;28;20029;-71
2021/07/11 06:32:07;;;;;;;30.60;22.83;;;18.90;90.90;;;;;;5053831;28;20037;-72
2021/07/11 06:34:33;;;;;;;29.73;23.40;;;18.90;91.00;;;;;;5046531;28;20025;-72
2021/07/11 06:36:59;;;;;;;28.92;23.45;;;18.90;91.00;;;;;;5035110;28;20520;-72
2021/07/11 06:39:24;;;;;;;30.65;24.25;;;18.90;91.10;;;;;;5035002;28;20039;-71
2021/07/11 06:41:50;;;;;;;28.05;21.98;;;19.00;91.10;;;;;;5016960;28;20057;-72
2021/07/11 06:44:16;;;;;;;28.10;22.90;;;19.00;91.10;;;;;;5040193;28;20496;-71
2021/07/11 06:46:41;;;;;;;28.02;22.15;;;19.00;91.00;;;;;;5054683;28;20040;-72
2021/07/11 06:49:07;;;;;;;29.52;22.95;;;19.00;91.00;;;;;;5054793;28;20032;-72
2021/07/11 06:51:33;;;;;;;27.00;22.25;;;19.00;91.10;;;;;;5054708;28;20377;-72
2021/07/11 06:53:58;;;;;;;30.25;21.67;;;19.10;91.00;;;;;;5051555;28;20397;-71
2021/07/11 06:56:24;;;;;;;26.90;21.80;;;19.20;91.10;;;;;;5034691;28;20025;-72
2021/07/11 06:58:50;;;;;;;28.15;19.77;;;19.20;91.10;;;;;;5033349;28;20037;-73
2021/07/11 07:01:15;;;;;;;27.45;22.45;;;19.30;91.00;;;;;;5016447;28;20381;-72
2021/07/11 07:03:41;;;;;;;28.15;22.00;;;19.30;90.90;;;;;;5034177;28;20029;-72
2021/07/11 07:06:08;;;;;;;28.60;22.45;;;19.40;90.90;;;;;;5052743;28;20108;-71
2021/07/11 07:08:34;;;;;;;28.77;22.95;;;19.40;90.90;;;;;;5052963;28;20021;-72
2021/07/11 07:10:59;;;;;;;24.17;19.92;;;19.40;90.90;;;;;;5036399;28;20029;-72
2021/07/11 07:13:25;;;;;;;25.00;20.05;;;19.50;90.80;;;;;;5052840;28;20465;-71
2021/07/11 07:15:51;;;;;;;28.77;21.25;;;19.50;90.60;;;;;;5035847;28;20046;-71
2021/07/11 07:18:16;;;;;;;28.67;21.67;;;19.60;90.50;;;;;;5025577;28;20485;-71
2021/07/11 07:20:42;;;;;;;24.98;20.05;;;19.70;90.40;;;;;;5041905;28;20029;-71
2021/07/11 07:23:08;;;;;;;29.52;22.15;;;19.80;90.30;;;;;;5043215;28;20035;-72
2021/07/11 07:25:33;;;;;;;28.10;20.70;;;19.80;90.20;;;;;;5030420;28;20061;-72
2021/07/11 07:27:59;;;;;;;23.85;18.05;;;20.00;90.10;;;;;;5034956;28;20032;-70
2021/07/11 07:30:25;;;;;;;27.25;22.10;;;20.10;90.00;;;;;;5053844;28;20470;-70
2021/07/11 07:32:51;;;;;;;23.98;19.63;;;20.20;89.70;;;;;;5052705;28;20024;-70
2021/07/11 07:35:18;;;;;;;27.33;20.35;;;20.20;89.40;;;;;;5046372;28;20060;-71
2021/07/11 07:37:45;;;;;;;25.58;21.10;;;20.40;89.10;;;;;;5045360;28;20355;-70
2021/07/11 07:40:12;;;;;;;28.55;21.83;;;20.50;88.40;;;;;;5043116;28;20097;-71
2021/07/11 07:42:39;;;;;;;29.58;22.17;;;20.50;87.90;;;;;;5033285;28;20069;-72
2021/07/11 07:45:05;;;;;;;25.48;20.92;;;20.60;87.60;;;;;;5041826;28;20059;-71
2021/07/11 07:47:31;;;;;;;21.83;19.27;;;20.70;87.40;;;;;;5036880;28;20091;-71
2021/07/11 07:49:57;;;;;;;27.05;22.90;;;20.90;87.10;;;;;;5033898;28;20033;-69
2021/07/11 07:52:23;;;;;;;26.35;22.13;;;21.00;86.40;;;;;;5032604;28;20044;-70
2021/07/11 07:54:48;;;;;;;28.83;23.10;;;21.00;86.10;;;;;;5050545;28;20033;-73
2021/07/11 07:57:15;;;;;;;30.42;23.70;;;21.00;85.30;;;;;;5040912;28;20037;-70
2021/07/11 07:59:41;;;;;;;28.67;23.25;;;21.00;85.10;;;;;;5033479;28;20071;-73
2021/07/11 08:02:08;;;;;;;28.42;24.58;;;20.90;84.90;;;;;;5016067;28;20478;-71
2021/07/11 08:04:33;;;;;;;28.45;23.48;;;20.90;85.10;;;;;;5038231;28;20036;-73
2021/07/11 08:06:59;;;;;;;29.42;23.10;;;20.90;84.90;;;;;;5043858;28;20362;-72
2021/07/11 08:09:25;;;;;;;27.52;21.23;;;20.90;84.90;;;;;;5040269;28;20090;-72
2021/07/11 08:11:50;;;;;;;29.38;22.50;;;20.90;84.60;;;;;;5051860;28;20061;-71
2021/07/11 08:14:16;;;;;;;26.65;21.80;;;20.90;84.20;;;;;;5051971;28;20075;-71
2021/07/11 08:16:44;;;;;;;28.45;21.92;;;20.90;84.20;;;;;;5052517;28;20535;-70
2021/07/11 08:19:10;;;;;;;24.92;21.48;;;21.00;84.00;;;;;;5052183;28;20396;-72
2021/07/11 08:21:36;;;;;;;27.25;20.48;;;21.00;84.00;;;;;;5051849;28;20025;-71
2021/07/11 08:24:02;;;;;;;24.48;19.13;;;21.00;83.80;;;;;;5053279;28;20025;-71
2021/07/11 08:26:28;;;;;;;22.58;19.80;;;21.10;83.90;;;;;;5043926;28;20013;-70
2021/07/11 08:28:54;;;;;;;26.38;20.02;;;21.10;83.60;;;;;;5057380;28;20477;-72
2021/07/11 08:31:19;;;;;;;25.05;19.88;;;21.10;83.70;;;;;;5044753;28;20037;-77
2021/07/11 08:33:45;;;;;;;23.55;18.75;;;21.10;84.50;;;;;;5037166;28;20049;-78
2021/07/11 08:36:11;;;;;;;23.65;19.63;;;21.10;83.90;;;;;;5037092;28;20064;-77
2021/07/11 08:38:37;;;;;;;26.00;20.10;;;21.10;83.90;;;;;;5037059;28;20033;-78
2021/07/11 08:41:02;;;;;;;24.63;19.10;;;21.20;83.80;;;;;;5019370;28;20028;-77
2021/07/11 08:43:29;;;;;;;26.80;19.15;;;21.20;83.60;;;;;;5049084;28;20087;-78
2021/07/11 08:45:55;;;;;;;28.25;22.20;;;21.30;83.40;;;;;;5037057;28;20102;-77
2021/07/11 08:48:21;;;;;;;26.35;20.77;;;21.30;82.70;;;;;;5036721;28;20108;-76
2021/07/11 08:50:47;;;;;;;23.10;18.50;;;21.30;82.40;;;;;;5037189;28;20416;-77
2021/07/11 08:53:14;;;;;;;22.42;17.58;;;21.30;82.30;;;;;;5036682;28;20037;-77
2021/07/11 08:55:41;;;;;;;24.45;18.42;;;21.40;82.40;;;;;;5036938;28;20040;-78
2021/07/11 08:58:07;;;;;;;26.38;18.90;;;21.50;82.10;;;;;;5036346;28;20025;-79
2021/07/11 09:00:34;;;;;;;24.60;19.50;;;21.50;81.40;;;;;;5036611;28;20025;-78
2021/07/11 09:03:01;;;;;;;20.48;16.80;;;21.60;81.20;;;;;;5019261;28;20034;-78
2021/07/11 09:05:27;;;;;;;21.73;17.55;;;21.60;80.90;;;;;;5036330;28;20083;-79
2021/07/11 09:08:03;;;;;;;20.98;16.95;;;21.70;80.60;;;;;;5036601;28;20430;-78
2021/07/11 09:10:40;;;;;;;20.30;15.45;;;21.70;80.10;;;;;;5036625;28;20065;-78
2021/07/11 09:13:13;;;;;;;22.10;16.88;;;21.80;79.80;;;;;;5053435;28;20044;-77
2021/07/11 09:15:45;;;;;;;21.50;16.90;;;21.80;79.70;;;;;;5055151;28;20025;-77
2021/07/11 09:18:12;;;;;;;20.05;15.68;;;21.80;79.90;;;;;;5039558;28;20033;-76
2021/07/11 09:20:57;;;;;;;23.77;18.83;;;21.80;79.60;;;;;;5056604;28;20510;-77
2021/07/11 09:23:24;;;;;;;22.15;18.35;;;21.90;79.40;;;;;;5054900;28;20021;-77
2021/07/11 09:26:00;;;;;;;25.08;19.02;;;21.80;79.20;;;;;;5056421;28;20083;-77
2021/07/11 09:28:27;;;;;;;24.40;19.58;;;21.70;79.30;;;;;;5055180;28;20029;-77
2021/07/11 09:31:06;;;;;;;24.38;17.88;;;21.60;79.50;;;;;;5055406;28;20029;-77
2021/07/11 09:33:33;;;;;;;23.55;17.77;;;21.50;79.60;;;;;;5036257;28;20029;-77
2021/07/11 09:36:06;;;;;;;20.65;17.52;;;21.50;79.90;;;;;;5034955;28;20029;-77
2021/07/11 09:38:32;;;;;;;20.67;16.30;;;21.60;79.90;;;;;;5035034;28;20029;-77
2021/07/11 09:40:58;;;;;;;21.30;16.90;;;21.60;79.90;;;;;;5038357;28;20045;-76
2021/07/11 09:43:23;;;;;;;21.65;17.77;;;21.60;79.70;;;;;;5052444;28;20175;-78
2021/07/11 09:45:49;;;;;;;25.63;17.58;;;21.70;79.80;;;;;;5040693;28;20034;-79
2021/07/11 09:48:15;;;;;;;22.23;17.83;;;21.80;79.80;;;;;;5045480;28;20021;-77
2021/07/11 09:50:40;;;;;;;23.50;18.15;;;21.90;79.60;;;;;;5044455;28;20051;-78
2021/07/11 09:53:07;;;;;;;21.55;16.63;;;22.10;79.30;;;;;;5045111;28;20138;-69
2021/07/11 09:55:35;;;;;;;23.83;18.20;;;22.10;79.20;;;;;;5044809;28;20021;-70
2021/07/11 09:58:03;;;;;;;24.13;17.55;;;22.20;78.60;;;;;;5044901;28;20029;-71
2021/07/11 10:00:32;;;;;;;21.02;16.95;;;22.30;78.20;;;;;;5042587;28;20030;-69
2021/07/11 10:03:11;;;;;;;23.13;15.50;;;22.40;77.90;;;;;;5045496;28;20040;-72
2021/07/11 10:05:37;;;;;;;20.73;16.55;;;22.50;77.30;;;;;;5044484;28;20018;-71
2021/07/11 10:08:03;;;;;;;22.73;15.98;;;22.60;77.20;;;;;;5044735;28;20029;-72
2021/07/11 10:10:31;;;;;;;17.35;12.90;;;22.70;76.80;;;;;;5044466;28;20366;-70
2021/07/11 10:12:58;;;;;;;17.98;13.38;;;22.70;76.40;;;;;;5043787;28;20037;-70
2021/07/11 10:15:27;;;;;;;15.07;12.25;;;22.80;76.20;;;;;;5040317;28;20083;-71
2021/07/11 10:18:12;;;;;;;17.10;12.85;;;22.80;75.80;;;;;;5035338;28;20076;-71
2021/07/11 10:20:49;;;;;;;16.85;12.98;;;22.90;75.00;;;;;;5045418;28;20029;-71
2021/07/11 10:23:37;;;;;;;16.60;12.18;;;22.90;74.60;;;;;;5055414;28;20033;-71
2021/07/11 10:26:16;;;;;;;16.30;11.57;;;23.00;74.60;;;;;;5055018;28;20021;-70
2021/07/11 10:28:47;;;;;;;14.57;11.05;;;23.10;74.20;;;;;;5053833;28;20376;-71
2021/07/11 10:31:25;;;;;;;13.82;10.27;;;23.20;74.20;;;;;;5038541;28;20397;-70
2021/07/11 10:33:53;;;;;;;18.65;14.95;;;23.30;73.90;;;;;;5035016;28;20508;-70
2021/07/11 10:36:35;;;;;;;19.83;14.90;;;23.30;73.80;;;;;;5035253;28;20037;-70
2021/07/11 10:39:04;;;;;;;22.15;15.07;;;23.30;73.80;;;;;;5035002;28;20029;-71
2021/07/11 10:41:31;;;;;;;22.98;17.27;;;23.40;74.30;;;;;;5050389;28;20077;-71
2021/07/11 10:44:32;;;;;;;19.95;15.82;;;23.40;73.60;;;;;;5055190;28;20021;-70
2021/07/11 10:47:03;;;;;;;21.58;16.58;;;23.60;73.20;;;;;;5035699;28;20247;-70
2021/07/11 10:49:31;;;;;;;19.90;16.00;;;23.70;73.10;;;;;;5045936;28;20056;-71
2021/07/11 10:52:06;;;;;;;20.48;15.43;;;23.80;72.90;;;;;;5044908;28;20034;-71
2021/07/11 10:54:35;;;;;;;18.70;14.82;;;24.00;72.50;;;;;;5052162;28;20380;-71
2021/07/11 10:57:04;;;;;;;16.60;12.60;;;24.10;71.80;;;;;;5054547;28;20025;-71
2021/07/11 10:59:35;;;;;;;17.10;12.23;;;24.20;71.50;;;;;;5054281;28;20071;-73
2021/07/11 11:02:04;;;;;;;14.25;11.27;;;24.40;70.80;;;;;;5053292;28;20108;-71
2021/07/11 11:04:29;;;;;;;13.90;11.52;;;24.50;70.40;;;;;;5054470;28;20014;-72
2021/07/11 11:06:55;;;;;;;14.48;11.40;;;24.90;70.40;;;;;;5054456;28;20430;-70
2021/07/11 11:09:37;;;;;;;11.60;9.57;;;25.40;70.60;;;;;;5050209;28;20025;-72
2021/07/11 11:12:26;;;;;;;11.20;8.98;;;26.20;69.00;;;;;;5044472;28;20415;-71
2021/07/11 11:15:11;;;;;;;13.23;9.50;;;26.70;67.20;;;;;;5044181;28;20037;-71
2021/07/11 11:17:37;;;;;;;10.30;8.13;;;27.30;66.30;;;;;;5063531;28;20070;-71
2021/07/11 11:20:07;;;;;;;12.00;8.57;;;27.80;65.20;;;;;;5073915;28;20071;-72
2021/07/11 11:22:33;;;;;;;9.73;8.35;;;27.80;63.90;;;;;;5072630;28;20017;-72
2021/07/11 11:24:59;;;;;;;10.90;8.77;;;27.90;62.60;;;;;;5041646;28;20026;-73
2021/07/11 11:27:43;;;;;;;10.15;8.32;;;27.90;62.00;;;;;;5033756;28;20035;-73
2021/07/11 11:30:27;;;;;;;9.80;7.85;;;28.20;60.70;;;;;;5032540;28;20034;-72
2021/07/11 11:33:00;;;;;;;9.18;6.85;;;28.60;59.20;;;;;;5051926;28;20494;-73
2021/07/11 11:35:27;;;;;;;;;;;29.00;58.60;;;;;;5053813;28;20484;-72
2021/07/11 11:37:57;;;;;;;8.52;6.88;;;29.40;58.00;;;;;;5053564;28;19904;-73
2021/07/11 11:40:24;;;;;;;8.52;6.80;;;29.30;57.30;;;;;;5053729;28;20025;-73
2021/07/11 11:42:56;;;;;;;8.93;7.72;;;29.30;56.00;;;;;;5043909;28;20052;-72
2021/07/11 11:45:28;;;;;;;8.35;6.82;;;29.40;55.80;;;;;;5046566;28;20477;-71
2021/07/11 11:48:03;;;;;;;8.02;5.95;;;29.60;55.70;;;;;;5043210;28;20052;-71
2021/07/11 11:50:30;;;;;;;9.52;7.28;;;29.70;55.20;;;;;;5044207;28;20025;-71
2021/07/11 11:53:15;;;;;;;10.32;7.60;;;29.70;54.50;;;;;;5052473;28;20017;-71
2021/07/11 11:55:51;;;;;;;9.52;7.63;;;29.40;53.60;;;;;;5046628;28;20398;-71
2021/07/11 11:58:24;;;;;;;7.82;6.03;;;29.30;53.80;;;;;;5048789;28;20025;-71
2021/07/11 12:01:05;;;;;;;8.50;6.20;;;29.20;53.90;;;;;;5053356;28;20029;-72
2021/07/11 12:03:31;;;;;;;8.07;5.45;;;29.10;53.60;;;;;;5053689;28;20078;-70
2021/07/11 12:06:00;;;;;;;7.75;5.30;;;29.10;54.00;;;;;;5052910;28;20100;-72
2021/07/11 12:08:28;;;;;;;8.13;5.90;;;29.10;53.80;;;;;;5052350;28;20041;-71
2021/07/11 12:10:54;;;;;;;8.48;6.15;;;29.20;53.10;;;;;;5053383;28;20035;-73
2021/07/11 12:13:25;;;;;;;7.57;6.03;;;29.30;53.20;;;;;;5052358;28;20029;-72
2021/07/11 12:16:11;;;;;;;6.75;4.80;;;29.40;52.60;;;;;;5043575;28;20132;-72
2021/07/11 12:18:41;;;;;;;7.90;4.97;;;29.40;52.30;;;;;;5033378;28;20029;-70
2021/07/11 12:21:07;;;;;;;6.38;4.75;;;29.40;52.10;;;;;;5048609;28;20036;-72
2021/07/11 12:23:32;;;;;;;6.03;4.65;;;29.40;52.10;;;;;;5034732;28;20017;-71
2021/07/11 12:26:01;;;;;;;8.00;5.65;;;29.40;52.00;;;;;;5051832;28;20033;-73
2021/07/11 12:28:26;;;;;;;8.35;6.32;;;29.50;52.00;;;;;;5035075;28;20013;-72
2021/07/11 12:30:54;;;;;;;7.43;5.80;;;29.60;51.80;;;;;;5051652;28;20040;-71
2021/07/11 12:33:33;;;;;;;7.88;5.63;;;29.70;51.60;;;;;;5035034;28;20028;-72
2021/07/11 12:36:00;;;;;;;6.93;5.30;;;29.80;51.20;;;;;;5033101;28;20030;-72